Time;durP1;ratioP1;P1;durP2;ratioP2;P2;SDS_P1;SDS_P2;PMS_P1;PMS_P2;Temp;Humidity;BMP_temperature;BMP_pressure;BME280_temperature;BME280_humidity;BME280_pressure;Samples;Min_cycle;Max_cycle;Signal;HPM_P1;HPM_P2
2023/02/23 00:01:37;;;;;;;17.73;16.03;;;9.30;91.80;;;9.50;76.77;97557.28;5038975;28;20537;-71
2023/02/23 00:04:06;;;;;;;17.77;15.90;;;9.20;92.00;;;9.43;76.96;97553.00;5046949;28;20518;-72
2023/02/23 00:06:36;;;;;;;15.83;14.27;;;9.20;92.40;;;9.47;76.97;97562.28;5052500;28;20447;-70
2023/02/23 00:09:11;;;;;;;17.10;15.20;;;9.20;92.30;;;9.68;76.17;97557.59;5040163;28;20795;-71
2023/02/23 00:11:38;;;;;;;18.00;15.17;;;9.30;92.00;;;9.59;76.52;97560.53;5048483;28;20449;-72
2023/02/23 00:14:07;;;;;;;18.50;16.57;;;9.30;91.50;;;9.58;75.12;97564.28;5043570;28;20461;-71
2023/02/23 00:16:34;;;;;;;17.57;15.77;;;9.30;91.30;;;9.54;75.37;97560.38;5064695;28;20573;-72
2023/02/23 00:19:01;;;;;;;20.07;16.50;;;9.20;91.30;;;9.51;76.02;97568.91;5051646;28;20437;-71
2023/02/23 00:21:31;;;;;;;19.93;17.50;;;9.20;91.40;;;9.51;75.82;97563.53;5041600;28;20480;-70
2023/02/23 00:24:02;;;;;;;19.87;17.77;;;9.20;91.30;;;9.50;75.51;97556.47;5045096;28;20462;-71
2023/02/23 00:26:33;;;;;;;20.47;17.30;;;9.30;90.60;;;9.53;74.50;97556.03;5044098;28;21144;-71
2023/02/23 00:29:01;;;;;;;20.43;17.10;;;9.30;90.30;;;9.38;74.86;97542.06;5037386;28;20441;-70
2023/02/23 00:31:29;;;;;;;19.03;16.83;;;9.20;90.50;;;9.40;74.97;97561.53;5059508;28;20444;-70
2023/02/23 00:34:00;;;;;;;20.77;18.13;;;9.10;90.80;;;9.42;75.20;97562.13;5042121;28;20458;-73
2023/02/23 00:36:30;;;;;;;19.77;17.37;;;9.10;90.80;;;9.32;76.31;97549.97;5057632;28;20466;-70
2023/02/23 00:39:04;;;;;;;20.60;17.43;;;9.10;91.10;;;9.18;76.05;97543.84;5048138;28;20490;-72
2023/02/23 00:41:31;;;;;;;19.33;16.97;;;9.00;91.20;;;9.24;75.85;97544.84;5050135;28;20477;-70
2023/02/23 00:44:00;;;;;;;20.10;18.00;;;9.00;91.50;;;9.19;75.74;97553.59;5042884;28;20980;-73
2023/02/23 00:46:30;;;;;;;18.30;16.40;;;8.90;91.60;;;9.15;76.31;97555.06;5052719;28;20467;-74
2023/02/23 00:48:59;;;;;;;19.57;17.10;;;8.80;91.80;;;9.30;75.29;97552.06;5047725;28;20451;-71
2023/02/23 00:51:29;;;;;;;21.33;16.70;;;8.90;92.00;;;9.42;75.24;97554.03;5044581;28;20457;-70
2023/02/23 00:53:57;;;;;;;19.33;17.27;;;9.00;91.30;;;9.29;75.06;97557.69;5044430;28;20520;-70
2023/02/23 00:56:26;;;;;;;20.77;18.57;;;9.00;91.10;;;9.14;76.66;97564.19;5038407;28;20532;-71
2023/02/23 00:58:54;;;;;;;22.53;17.07;;;8.90;91.40;;;9.10;76.55;97562.16;5045478;28;21205;-73
2023/02/23 01:01:25;;;;;;;19.43;17.37;;;8.80;91.80;;;9.18;76.26;97564.59;5045689;28;20542;-71
2023/02/23 01:03:53;;;;;;;20.00;17.90;;;8.90;91.80;;;9.17;76.40;97565.63;5045877;28;20464;-71
2023/02/23 01:06:20;;;;;;;24.87;19.37;;;8.90;91.60;;;9.25;75.81;97562.66;5038010;28;20456;-73
2023/02/23 01:08:49;;;;;;;22.43;18.33;;;9.00;91.10;;;9.17;75.71;97569.16;5032290;28;20531;-70
2023/02/23 01:11:21;;;;;;;23.03;19.07;;;8.90;90.90;;;9.28;74.65;97551.44;5030502;28;20549;-72
2023/02/23 01:13:52;;;;;;;21.90;18.67;;;9.00;90.70;;;9.37;74.56;97556.59;5032184;28;20469;-73
2023/02/23 01:16:26;;;;;;;28.53;21.23;;;9.10;90.50;;;9.36;74.40;97561.13;5026945;28;20935;-71
2023/02/23 01:18:54;;;;;;;21.07;18.27;;;9.00;90.40;;;9.31;75.16;97564.47;5034076;28;20527;-71
2023/02/23 01:21:24;;;;;;;23.73;19.67;;;9.00;90.50;;;9.32;74.05;97543.75;5048316;28;20536;-72
2023/02/23 01:23:52;;;;;;;25.57;19.77;;;9.00;90.60;;;9.39;74.21;97563.38;5035941;28;20449;-71
2023/02/23 01:26:22;;;;;;;26.20;20.73;;;9.10;90.30;;;9.19;75.03;97558.16;5031746;28;20541;-71
2023/02/23 01:28:52;;;;;;;25.13;19.47;;;9.00;90.40;;;9.05;75.19;97557.41;5036741;28;20460;-70
2023/02/23 01:31:20;;;;;;;28.23;21.63;;;8.90;90.50;;;8.98;75.88;97562.84;5066949;28;20515;-71
2023/02/23 01:33:47;;;;;;;23.27;19.43;;;8.80;90.70;;;9.11;75.15;97558.41;5049118;28;20452;-73
2023/02/23 01:36:15;;;;;;;24.73;20.07;;;8.90;90.50;;;9.11;74.69;97561.09;5050694;28;21123;-73
2023/02/23 01:38:42;;;;;;;21.53;18.07;;;8.90;90.70;;;9.07;74.82;97563.41;5070735;28;20985;-71
2023/02/23 01:41:09;;;;;;;25.33;20.67;;;8.80;90.60;;;8.99;75.25;97556.41;5076098;28;20485;-72
2023/02/23 01:44:03;;;;;;;24.53;19.60;;;8.80;90.90;;;9.01;75.32;97556.19;5061123;28;20466;-71
2023/02/23 01:46:34;;;;;;;25.60;20.37;;;8.80;90.80;;;8.85;76.42;97554.81;5043130;28;20613;-71
2023/02/23 01:49:02;;;;;;;25.03;19.27;;;8.70;91.00;;;8.83;76.78;97551.53;5054135;28;20869;-70
2023/02/23 01:51:34;;;;;;;25.60;19.13;;;8.60;91.40;;;8.89;75.69;97547.97;5046455;28;20448;-72
2023/02/23 01:54:08;;;;;;;24.20;19.23;;;8.70;91.40;;;9.03;75.43;97552.25;5052752;28;20456;-72
2023/02/23 01:56:42;;;;;;;27.10;20.97;;;8.70;91.00;;;8.88;76.44;97549.03;5045635;28;20488;-73
2023/02/23 01:59:14;;;;;;;23.83;17.70;;;8.70;91.00;;;8.82;76.66;97545.31;5035708;28;20455;-72
2023/02/23 02:01:43;;;;;;;25.00;19.53;;;8.60;91.20;;;8.72;76.28;97556.56;5050264;28;20477;-70
2023/02/23 02:04:15;;;;;;;26.00;20.70;;;8.50;91.60;;;8.67;77.42;97553.66;5063375;28;20480;-68
2023/02/23 02:06:45;;;;;;;22.93;20.47;;;8.40;92.10;;;8.61;77.04;97551.84;5050862;28;20471;-71
2023/02/23 02:09:16;;;;;;;22.90;20.23;;;8.40;92.20;;;8.75;77.30;97550.75;5048983;28;20483;-71
2023/02/23 02:11:45;;;;;;;26.87;21.90;;;8.40;92.30;;;8.73;76.75;97557.38;5054117;28;20635;-70
2023/02/23 02:14:18;;;;;;;26.93;21.20;;;8.50;91.70;;;8.70;77.24;97553.25;5060428;28;20456;-69
2023/02/23 02:17:02;;;;;;;25.90;20.80;;;8.50;91.60;;;8.71;76.90;97549.50;5062282;28;20470;-69
2023/02/23 02:20:29;;;;;;;24.67;19.70;;;8.60;91.60;;;8.58;77.52;97554.97;5074118;28;20453;-70
2023/02/23 02:23:50;;;;;;;26.70;20.33;;;8.50;91.60;;;8.50;77.71;97554.16;5069602;28;20494;-71
2023/02/23 02:26:34;;;;;;;27.93;20.97;;;8.30;92.20;;;8.50;77.77;97547.97;5080504;28;20459;-71
2023/02/23 02:29:54;;;;;;;24.97;20.60;;;8.30;92.40;;;8.57;77.30;97537.13;5068292;28;20737;-72
2023/02/23 02:33:00;;;;;;;30.17;21.83;;;8.30;93.00;;;8.48;77.61;97545.44;5051919;28;20545;-72
2023/02/23 02:36:17;;;;;;;23.00;19.80;;;8.30;92.50;;;8.48;77.28;97545.44;5044197;28;20463;-71
2023/02/23 02:38:57;;;;;;;25.53;19.60;;;8.20;92.90;;;8.52;77.64;97545.03;5056418;28;20459;-74
2023/02/23 02:41:36;;;;;;;28.37;21.07;;;8.10;93.20;;;8.54;77.27;97553.72;5048238;28;20492;-71
2023/02/23 02:44:11;;;;;;;27.00;20.97;;;8.10;93.30;;;8.56;78.10;97546.25;5067083;28;20783;-70
2023/02/23 02:46:42;;;;;;;28.40;22.40;;;8.20;93.30;;;8.47;78.14;97535.72;5044055;28;20542;-70
2023/02/23 02:49:21;;;;;;;30.63;22.20;;;8.20;92.80;;;8.16;77.54;97488.84;5066557;28;20474;-69
2023/02/23 02:51:53;;;;;;;29.00;22.93;;;8.20;92.90;;;8.49;78.29;97538.19;5042857;28;20522;-70
2023/02/23 02:54:28;;;;;;;28.10;22.40;;;8.20;93.00;;;8.43;77.57;97530.97;5055042;28;20628;-70
2023/02/23 02:56:59;;;;;;;31.83;23.90;;;8.20;92.90;;;8.30;78.64;97538.06;5039261;28;20503;-71
2023/02/23 04:18:43;;;;;;;19.53;16.97;;;7.50;96.90;;;7.73;81.70;97556.59;5043999;28;20455;-72
2023/02/23 04:21:11;;;;;;;21.83;17.30;;;7.50;97.20;;;7.67;82.00;97560.13;5030018;28;20572;-73
2023/02/23 04:23:40;;;;;;;18.73;16.80;;;7.50;97.10;;;7.60;81.71;97555.56;5034709;28;20471;-71
2023/02/23 04:26:07;;;;;;;19.40;16.93;;;7.50;96.90;;;7.51;82.67;97546.09;5033885;28;20550;-72
2023/02/23 04:28:35;;;;;;;22.27;16.70;;;7.50;96.60;;;7.43;82.67;97554.34;5032483;28;20472;-72
2023/02/23 04:31:05;;;;;;;20.77;17.13;;;7.40;97.10;;;7.34;83.14;97557.22;5034542;28;21157;-73
2023/02/23 04:33:32;;;;;;;22.77;18.77;;;7.40;97.30;;;7.35;83.07;97564.28;5034329;28;20512;-71
2023/02/23 04:36:01;;;;;;;29.40;19.07;;;7.40;98.00;;;7.40;83.28;97562.81;5026826;28;20518;-69
2023/02/23 04:38:28;;;;;;;24.47;18.93;;;7.30;98.30;;;7.43;82.91;97567.78;5048766;28;21023;-70
2023/02/23 04:40:55;;;;;;;22.50;18.97;;;7.30;98.40;;;7.37;83.40;97578.34;5028804;28;20463;-72
2023/02/23 04:43:22;;;;;;;25.40;19.67;;;7.30;98.80;;;7.48;82.80;97565.28;5037938;28;20470;-70
2023/02/23 04:45:50;;;;;;;25.30;19.27;;;7.30;99.00;;;7.33;83.14;97566.31;5040871;28;20438;-72
2023/02/23 04:48:17;;;;;;;20.97;17.77;;;7.30;98.00;;;7.34;83.04;97567.16;5031360;28;20836;-73
2023/02/23 04:50:44;;;;;;;21.60;17.80;;;7.30;98.10;;;7.29;83.54;97575.00;5043394;28;20594;-71
2023/02/23 04:53:13;;;;;;;25.20;19.40;;;7.30;99.20;;;7.20;84.02;97582.41;5050987;28;20479;-71
2023/02/23 04:55:40;;;;;;;24.50;19.80;;;7.20;98.50;;;7.19;83.61;97573.53;5032993;28;20964;-72
2023/02/23 04:58:12;;;;;;;23.43;19.57;;;7.10;98.90;;;7.15;83.67;97579.53;5032652;28;20501;-72
2023/02/23 05:00:40;;;;;;;25.60;19.90;;;7.00;99.80;;;7.09;83.93;97571.25;5037409;28;20455;-71
2023/02/23 05:03:07;;;;;;;23.33;20.10;;;7.00;99.90;;;6.64;83.90;97504.63;5036206;28;20483;-71
2023/02/23 05:05:34;;;;;;;25.60;21.40;;;7.00;99.90;;;7.05;84.03;97575.41;5036509;28;20458;-71
2023/02/23 05:08:01;;;;;;;29.10;21.50;;;7.00;99.90;;;7.08;84.29;97574.97;5034147;28;20463;-72
2023/02/23 05:10:32;;;;;;;23.00;19.23;;;7.00;99.90;;;7.01;84.85;97579.50;5049550;28;20822;-71
2023/02/23 05:13:00;;;;;;;24.40;20.30;;;6.90;99.90;;;6.93;85.07;97580.50;5056088;28;20536;-73
2023/02/23 05:15:27;;;;;;;23.00;18.97;;;6.90;99.90;;;6.93;85.17;97585.06;5059584;28;20458;-73
2023/02/23 05:17:55;;;;;;;24.73;20.10;;;6.90;99.90;;;6.87;85.31;97575.13;5052122;28;20452;-70
2023/02/23 05:20:23;;;;;;;30.37;22.70;;;6.90;99.90;;;6.85;85.50;97585.25;5048728;28;22355;-72
2023/02/23 05:22:50;;;;;;;27.30;19.90;;;6.80;99.90;;;6.90;85.37;97577.41;5046740;28;20479;-72
2023/02/23 05:25:18;;;;;;;26.60;21.37;;;6.80;99.90;;;6.86;86.02;97584.22;5056446;28;20460;-71
2023/02/23 05:27:46;;;;;;;23.03;20.40;;;6.80;99.90;;;6.89;85.65;97581.97;5059362;28;20456;-73
2023/02/23 05:30:14;;;;;;;25.67;21.60;;;6.80;99.90;;;6.83;85.25;97579.25;5068123;28;20549;-73
2023/02/23 05:32:41;;;;;;;25.10;21.10;;;6.90;99.90;;;7.01;85.41;97581.38;5062182;28;20468;-71
2023/02/23 05:35:09;;;;;;;29.10;21.30;;;6.90;99.90;;;6.84;85.59;97578.22;5059981;28;20496;-72
2023/02/23 05:37:37;;;;;;;28.37;20.13;;;6.90;99.90;;;6.85;86.11;97583.41;5039147;28;20448;-71
2023/02/23 05:40:05;;;;;;;28.10;21.97;;;6.90;99.90;;;6.88;85.52;97574.94;5051266;28;20445;-72
2023/02/23 05:42:33;;;;;;;26.47;20.40;;;6.90;99.90;;;6.91;85.86;97579.09;5054174;28;20475;-73
2023/02/23 05:45:03;;;;;;;27.50;19.90;;;6.90;99.90;;;6.88;86.01;97576.78;5051989;28;20459;-72
2023/02/23 05:47:32;;;;;;;26.03;20.90;;;7.00;99.90;;;6.66;86.40;97574.25;5051225;28;20540;-73
2023/02/23 05:49:59;;;;;;;22.53;19.80;;;6.90;99.90;;;6.83;86.06;97572.03;5055427;28;20467;-71
2023/02/23 05:52:26;;;;;;;27.40;20.60;;;6.80;99.90;;;6.86;85.61;97565.41;5062035;28;20463;-71
2023/02/23 05:54:54;;;;;;;26.90;20.60;;;6.90;99.90;;;6.75;86.23;97578.41;5053677;28;20451;-71
2023/02/23 05:57:21;;;;;;;28.20;21.97;;;6.80;99.90;;;6.75;86.31;97574.88;5068612;28;20481;-71
2023/02/23 05:59:48;;;;;;;32.30;22.87;;;6.80;99.90;;;6.77;86.18;97578.19;5043322;28;20460;-72
2023/02/23 06:02:17;;;;;;;33.03;23.13;;;6.80;99.90;;;6.79;86.69;97589.56;5038684;28;20487;-71
2023/02/23 06:04:45;;;;;;;28.10;21.90;;;6.80;99.90;;;6.50;85.74;97522.56;5041828;28;20475;-71
2023/02/23 06:07:13;;;;;;;28.77;22.63;;;6.80;99.90;;;6.98;85.42;97577.22;5040143;28;20543;-71
2023/02/23 06:09:40;;;;;;;27.80;21.90;;;6.90;99.90;;;7.06;84.85;97595.00;5044203;28;20457;-72
2023/02/23 06:12:08;;;;;;;34.20;23.60;;;7.00;99.90;;;7.05;84.97;97596.03;5036594;28;20554;-70
2023/02/23 06:14:35;;;;;;;29.50;21.50;;;7.00;99.90;;;6.93;85.33;97593.13;5042525;28;20454;-71
2023/02/23 06:17:02;;;;;;;28.77;21.13;;;6.90;99.90;;;6.92;85.83;97596.84;5040156;28;20532;-69
2023/02/23 06:19:31;;;;;;;26.47;21.80;;;6.90;99.90;;;7.02;85.72;97597.28;5029413;28;20583;-71
2023/02/23 06:21:59;;;;;;;26.80;21.00;;;7.00;99.90;;;6.62;85.09;97559.56;5032224;28;20490;-71
2023/02/23 06:24:26;;;;;;;29.83;22.47;;;7.00;99.90;;;6.29;86.12;97517.31;5031286;28;20962;-71
2023/02/23 06:26:54;;;;;;;29.33;22.80;;;6.90;99.90;;;7.01;85.62;97600.97;5037736;28;20933;-71
2023/02/23 06:29:21;;;;;;;27.23;22.80;;;7.00;99.90;;;6.94;85.23;97605.53;5055494;28;20476;-71
2023/02/23 06:31:49;;;;;;;26.30;21.43;;;7.00;99.90;;;6.89;85.44;97606.13;5026753;28;20470;-70
2023/02/23 06:34:16;;;;;;;28.67;22.60;;;7.00;99.90;;;6.79;85.70;97609.19;5029947;28;20539;-69
2023/02/23 06:36:45;;;;;;;30.97;21.30;;;6.90;99.90;;;7.17;85.57;97615.06;5027984;28;20470;-71
2023/02/23 06:39:12;;;;;;;30.10;21.37;;;7.10;99.90;;;7.24;84.20;97610.56;5042078;28;20460;-72
2023/02/23 06:41:39;;;;;;;26.47;21.10;;;7.30;99.70;;;7.25;84.28;97609.53;5049369;28;20452;-70
2023/02/23 06:44:07;;;;;;;28.30;23.13;;;7.30;98.60;;;7.21;84.05;97614.47;5031136;28;20895;-71
2023/02/23 06:46:35;;;;;;;29.80;22.23;;;7.30;98.50;;;7.09;84.40;97621.47;5043215;28;20457;-71
2023/02/23 06:49:02;;;;;;;31.63;22.20;;;7.30;97.50;;;7.08;84.70;97622.50;5049482;28;20468;-69
2023/02/23 06:51:29;;;;;;;27.33;22.43;;;7.20;97.80;;;6.96;84.96;97616.91;5060624;28;20465;-70
2023/02/23 06:53:59;;;;;;;34.20;24.47;;;7.10;98.70;;;7.05;84.90;97628.28;5062355;28;22118;-71
2023/02/23 06:56:26;;;;;;;34.13;22.60;;;7.10;98.90;;;6.59;84.49;97555.41;5046643;28;20458;-69
2023/02/23 06:58:53;;;;;;;28.33;22.70;;;7.20;98.60;;;7.27;84.34;97630.81;5066746;28;20515;-74
2023/02/23 07:01:21;;;;;;;35.60;25.23;;;7.20;98.90;;;7.34;83.50;97635.16;5037676;28;20459;-69
2023/02/23 07:03:48;;;;;;;31.83;23.20;;;7.30;98.20;;;7.39;83.70;97639.94;5043618;28;20474;-71
2023/02/23 07:06:15;;;;;;;31.97;23.30;;;7.40;97.20;;;7.63;82.13;97629.63;5042395;28;20524;-71
2023/02/23 07:08:43;;;;;;;34.13;22.97;;;7.60;96.10;;;7.70;81.75;97638.50;5045237;28;20519;-71
2023/02/23 07:11:15;;;;;;;32.37;24.73;;;7.70;95.10;;;7.84;81.61;97641.19;5034720;28;20546;-72
2023/02/23 07:13:42;;;;;;;34.87;24.13;;;7.80;95.10;;;7.91;81.34;97633.97;5041435;28;20453;-70
2023/02/23 07:16:09;;;;;;;28.53;22.97;;;7.80;94.90;;;7.89;80.63;97639.56;5050179;28;20930;-72
2023/02/23 07:18:37;;;;;;;32.33;24.00;;;7.90;94.40;;;7.86;81.62;97642.66;5064364;28;20462;-73
2023/02/23 07:21:05;;;;;;;36.10;24.90;;;7.90;94.70;;;8.10;80.41;97645.72;5061448;28;20456;-72
2023/02/23 07:23:32;;;;;;;31.27;24.67;;;8.00;94.00;;;7.98;80.45;97648.25;5045325;28;20474;-69
2023/02/23 07:25:59;;;;;;;32.77;24.90;;;8.00;93.60;;;8.07;80.50;97641.63;5059507;28;20441;-72
2023/02/23 07:28:28;;;;;;;28.10;21.83;;;8.10;93.80;;;7.98;80.42;97639.34;5043028;28;20456;-68
2023/02/23 07:30:56;;;;;;;34.13;22.50;;;8.10;93.30;;;8.20;79.70;97646.16;5056285;28;20486;-71
2023/02/23 07:33:24;;;;;;;36.97;24.63;;;8.20;92.70;;;8.08;79.91;97645.97;5042353;28;21214;-69
2023/02/23 07:35:52;;;;;;;29.47;22.80;;;8.20;92.80;;;8.16;79.79;97644.91;5033820;28;21427;-68
2023/02/23 07:38:19;;;;;;;29.00;22.37;;;8.30;92.80;;;8.35;79.03;97645.09;5040846;28;20475;-68
2023/02/23 07:40:46;;;;;;;29.73;23.50;;;8.30;92.70;;;8.18;79.35;97637.47;5042251;28;21493;-69
2023/02/23 07:43:13;;;;;;;30.27;24.00;;;8.40;92.40;;;8.11;80.48;97644.69;5050706;28;20473;-73
2023/02/23 07:45:42;;;;;;;33.53;24.20;;;8.30;92.80;;;8.08;80.74;97648.66;5038554;28;21333;-68
2023/02/23 07:48:09;;;;;;;33.60;24.37;;;8.30;93.30;;;8.44;79.93;97651.91;5054193;28;20483;-71
2023/02/23 07:50:37;;;;;;;33.50;25.30;;;8.30;93.70;;;8.53;79.59;97654.41;5059072;28;20468;-69
2023/02/23 07:53:04;;;;;;;30.07;23.40;;;8.50;93.00;;;8.76;78.43;97652.06;5051030;28;20461;-72
2023/02/23 07:55:32;;;;;;;33.67;24.13;;;8.60;92.70;;;8.83;78.55;97648.50;5049011;28;20517;-71
2023/02/23 07:58:00;;;;;;;28.90;23.40;;;8.70;92.10;;;8.71;77.99;97651.84;5045517;28;20463;-71
2023/02/23 08:00:27;;;;;;;30.87;22.90;;;8.80;91.80;;;8.50;79.32;97651.09;5049181;28;20459;-70
2023/02/23 08:02:55;;;;;;;32.10;24.20;;;8.50;92.40;;;8.35;79.37;97645.94;5046942;28;20478;-70
2023/02/23 08:05:24;;;;;;;33.03;24.47;;;8.50;92.70;;;8.57;79.42;97644.84;5037547;28;20463;-70
2023/02/23 08:07:51;;;;;;;31.30;23.67;;;8.50;92.50;;;8.56;79.03;97653.97;5051588;28;20520;-69
2023/02/23 08:10:19;;;;;;;34.30;24.90;;;8.60;92.60;;;8.73;78.72;97648.97;5060448;28;20460;-69
2023/02/23 08:12:46;;;;;;;32.40;24.57;;;8.70;92.40;;;8.45;78.75;97647.34;5038821;28;20465;-69
2023/02/23 08:15:13;;;;;;;29.63;22.53;;;8.60;91.90;;;8.65;79.25;97650.03;5048310;28;20463;-68
2023/02/23 08:17:42;;;;;;;33.23;23.23;;;8.60;92.70;;;8.90;77.51;97657.41;5073765;28;20843;-69
2023/02/23 08:20:11;;;;;;;31.30;24.67;;;8.70;92.20;;;8.85;77.61;97657.19;5052313;28;20460;-73
2023/02/23 08:22:38;;;;;;;30.03;24.77;;;8.80;91.60;;;8.76;76.91;97617.03;5069624;28;20477;-68
2023/02/23 08:25:07;;;;;;;34.80;24.70;;;8.90;91.80;;;9.18;77.16;97656.25;5055165;28;20460;-70
2023/02/23 08:27:35;;;;;;;34.57;24.23;;;9.00;91.20;;;9.33;76.59;97651.38;5054693;28;20459;-69
2023/02/23 08:30:04;;;;;;;34.20;24.10;;;9.10;91.20;;;9.39;75.47;97654.25;5048681;28;20460;-69
2023/02/23 08:32:34;;;;;;;31.10;24.93;;;9.30;90.50;;;9.42;76.79;97659.22;5053111;28;20474;-70
2023/02/23 08:35:02;;;;;;;31.43;24.37;;;9.20;91.20;;;9.22;77.47;97657.47;5050592;28;21279;-71
2023/02/23 08:37:31;;;;;;;33.33;24.47;;;9.20;90.70;;;9.52;75.52;97656.88;5047025;28;20494;-70
2023/02/23 08:39:59;;;;;;;36.30;24.50;;;9.30;90.90;;;9.49;75.38;97657.31;5048721;28;20452;-71
2023/02/23 08:42:26;;;;;;;31.93;25.07;;;9.40;90.60;;;9.73;74.70;97646.75;5052271;28;20459;-70
2023/02/23 08:44:54;;;;;;;32.47;26.30;;;9.60;89.80;;;9.45;75.83;97656.06;5035972;28;20469;-70
2023/02/23 08:47:22;;;;;;;34.83;26.60;;;9.60;89.70;;;9.68;75.18;97660.09;5053228;28;20464;-84
2023/02/23 08:49:50;;;;;;;33.03;26.13;;;9.60;90.00;;;9.76;74.93;97657.09;5051190;28;20458;-70
2023/02/23 08:52:17;;;;;;;38.20;27.37;;;9.70;89.80;;;9.91;75.20;97660.31;5044363;28;20542;-70
2023/02/23 08:54:46;;;;;;;32.93;26.30;;;9.80;89.70;;;10.35;72.50;97641.44;5043027;28;20930;-71
2023/02/23 08:57:13;;;;;;;28.73;25.60;;;10.10;87.50;;;10.39;72.56;97652.63;5060500;28;21217;-71
2023/02/23 08:59:41;;;;;;;31.43;24.10;;;10.20;86.60;;;10.31;72.41;97655.63;5051519;28;20514;-72
2023/02/23 09:02:13;;;;;;;31.67;25.87;;;10.20;86.20;;;10.54;71.75;97656.84;5043262;28;20458;-68
2023/02/23 09:04:41;;;;;;;30.70;24.60;;;10.30;86.10;;;10.63;71.70;97663.63;5057798;28;20541;-69
2023/02/23 09:07:10;;;;;;;31.73;26.20;;;10.40;86.20;;;10.44;72.05;97660.91;5061426;28;20533;-71
2023/02/23 09:09:38;;;;;;;42.27;26.57;;;10.40;86.20;;;10.68;72.09;97661.06;5041313;28;20452;-69
2023/02/23 09:12:07;;;;;;;33.40;25.67;;;10.40;86.30;;;10.79;71.84;97664.91;5051895;28;21161;-70
2023/02/23 09:14:35;;;;;;;36.00;27.53;;;10.50;86.30;;;10.41;72.70;97672.16;5043531;28;20464;-71
2023/02/23 09:17:03;;;;;;;38.60;28.13;;;10.40;86.10;;;10.68;72.60;97673.78;5050417;28;20460;-74
2023/02/23 09:19:30;;;;;;;44.60;29.13;;;10.40;86.40;;;10.65;71.80;97669.63;5048416;28;20598;-73
2023/02/23 09:21:57;;;;;;;39.90;29.70;;;10.50;86.10;;;10.52;73.11;97672.47;5042482;28;20523;-72
2023/02/23 09:24:24;;;;;;;37.83;30.60;;;10.40;86.50;;;10.39;73.82;97665.31;5040016;28;20530;-69
2023/02/23 09:26:52;;;;;;;34.87;29.17;;;10.30;87.10;;;10.57;73.26;97675.34;5037876;28;20463;-69
2023/02/23 09:29:21;;;;;;;40.13;29.50;;;10.40;86.90;;;10.31;73.90;97663.72;5043963;28;20500;-74
2023/02/23 09:31:51;;;;;;;40.53;29.33;;;10.30;87.60;;;10.39;74.50;97663.44;5059351;28;20987;-71
2023/02/23 09:34:19;;;;;;;37.97;31.30;;;10.30;87.50;;;10.51;74.58;97673.50;5053065;28;20482;-70
2023/02/23 09:36:46;;;;;;;39.83;31.13;;;10.30;88.20;;;10.59;73.19;97619.22;5066541;28;20598;-71
2023/02/23 09:39:13;;;;;;;39.43;31.33;;;10.50;88.20;;;10.88;73.29;97660.84;5070574;28;20497;-70
2023/02/23 09:41:59;;;;;;;39.73;31.70;;;10.60;87.90;;;10.72;74.30;97670.41;5059641;28;20455;-72
2023/02/23 09:44:42;;;;;;;39.83;30.97;;;10.60;88.00;;;10.30;75.59;97651.25;5053076;28;20472;-72
2023/02/23 09:47:31;;;;;;;42.87;32.77;;;10.40;88.70;;;10.58;75.22;97674.28;5046061;28;20501;-73
2023/02/23 09:50:03;;;;;;;40.93;33.60;;;10.50;89.50;;;10.28;76.21;97661.47;5046681;28;20449;-73
2023/02/23 09:52:38;;;;;;;40.60;33.00;;;10.40;89.60;;;10.38;76.25;97672.56;5041882;28;20547;-71
2023/02/23 09:55:09;;;;;;;44.27;32.90;;;10.30;90.30;;;10.37;76.66;97668.22;5043040;28;20478;-70
2023/02/23 09:57:40;;;;;;;45.23;33.70;;;10.30;90.50;;;10.59;75.86;97670.53;5037967;28;20477;-71
2023/02/23 10:00:19;;;;;;;45.30;34.00;;;10.40;90.50;;;10.75;75.68;97667.25;5034394;28;20459;-72
2023/02/23 10:03:09;;;;;;;41.17;33.37;;;10.50;90.70;;;11.15;73.87;97670.53;5040443;28;21019;-73
2023/02/23 10:05:43;;;;;;;44.47;33.00;;;10.80;89.70;;;11.43;72.97;97674.50;5036757;28;20466;-73
2023/02/23 10:08:29;;;;;;;45.43;32.97;;;11.00;88.80;;;11.64;71.42;97675.88;5049607;28;20686;-73
2023/02/23 10:11:06;;;;;;;41.63;32.73;;;11.30;87.20;;;11.42;72.60;97672.84;5054135;28;20468;-71
2023/02/23 10:13:44;;;;;;;44.97;33.20;;;11.30;87.20;;;12.06;70.79;97672.38;5048715;28;20483;-73
2023/02/23 10:16:20;;;;;;;39.27;30.73;;;11.60;87.00;;;12.05;69.93;97676.09;5045411;28;20453;-77
2023/02/23 10:19:00;;;;;;;45.80;33.43;;;11.80;85.50;;;11.92;70.83;97670.91;5067618;28;20449;-73
2023/02/23 10:21:34;;;;;;;39.90;30.37;;;11.90;85.30;;;12.33;69.66;97674.59;5072964;28;20440;-69
2023/02/23 10:24:07;;;;;;;39.37;30.20;;;12.00;85.40;;;11.76;70.70;97675.94;5057746;28;20472;-72
2023/02/23 10:26:43;;;;;;;39.50;31.07;;;11.90;84.80;;;12.30;69.18;97666.94;5070256;28;20453;-71
2023/02/23 10:29:25;;;;;;;39.03;30.70;;;12.00;85.00;;;12.57;68.70;97671.91;5065121;28;20522;-74
2023/02/23 10:31:58;;;;;;;38.50;29.87;;;12.20;84.60;;;12.54;68.29;97666.97;5043334;28;20459;-73
2023/02/23 10:34:27;;;;;;;38.97;31.77;;;12.30;84.30;;;11.70;70.89;97669.56;5039494;28;20457;-73
2023/02/23 10:37:00;;;;;;;43.43;32.23;;;11.90;84.40;;;11.60;71.76;97678.22;5029272;28;20450;-73
2023/02/23 10:39:29;;;;;;;42.90;29.37;;;11.70;84.80;;;11.61;71.78;97682.59;5044064;28;20765;-71
2023/02/23 10:41:58;;;;;;;39.77;30.80;;;11.60;85.20;;;11.76;71.58;97679.44;5028754;28;20441;-74
2023/02/23 10:44:27;;;;;;;40.37;30.73;;;11.70;85.40;;;11.98;71.35;97683.50;5044332;28;20474;-70
2023/02/23 10:47:00;;;;;;;35.53;26.63;;;11.70;85.70;;;12.12;70.20;97676.00;5048039;28;20449;-73
2023/02/23 10:49:39;;;;;;;35.77;27.37;;;11.90;85.10;;;12.08;70.83;97683.78;5066526;28;20518;-72
2023/02/23 10:52:12;;;;;;;34.60;27.17;;;11.80;85.40;;;11.42;72.47;97656.63;5050289;28;21045;-74
2023/02/23 10:54:44;;;;;;;33.70;27.50;;;11.60;85.70;;;11.49;73.38;97684.41;5043558;28;20445;-69
2023/02/23 10:57:20;;;;;;;34.20;28.30;;;11.50;86.40;;;11.57;73.52;97686.78;5046969;28;20448;-74
2023/02/23 11:00:31;;;;;;;34.70;28.63;;;11.50;87.20;;;11.75;72.92;97679.66;5048369;28;20519;-72
2023/02/23 11:03:02;;;;;;;29.43;22.80;;;11.60;87.00;;;12.26;70.52;97676.63;5027474;28;20524;-72
2023/02/23 11:05:35;;;;;;;28.13;23.30;;;11.90;86.20;;;12.24;70.53;97679.53;5049671;28;20480;-70
2023/02/23 11:08:24;;;;;;;29.37;23.87;;;12.10;85.40;;;12.24;70.28;97684.16;5046976;28;21022;-72
2023/02/23 11:11:24;;;;;;;36.07;27.13;;;12.20;85.20;;;12.22;70.37;97684.38;5047603;28;20462;-72
2023/02/23 11:13:52;;;;;;;34.87;24.90;;;12.10;85.30;;;12.56;69.71;97678.38;5046988;28;20437;-72
2023/02/23 11:16:21;;;;;;;30.50;23.70;;;12.20;85.20;;;12.14;70.63;97679.31;5046372;28;20437;-73
2023/02/23 11:18:54;;;;;;;29.33;24.93;;;12.10;84.90;;;11.90;71.77;97679.25;5047999;28;20848;-72
2023/02/23 11:21:32;;;;;;;30.60;25.53;;;11.90;85.40;;;11.84;72.08;97655.81;5043651;28;20448;-72
2023/02/23 11:24:18;;;;;;;32.73;25.10;;;11.80;85.80;;;11.56;73.21;97673.50;5045572;28;20875;-71
2023/02/23 11:26:48;;;;;;;32.83;24.33;;;11.60;86.90;;;11.48;72.86;97628.66;5046143;28;20928;-72
2023/02/23 11:29:24;;;;;;;28.07;21.67;;;11.50;86.70;;;12.22;71.15;97664.59;5048139;28;20444;-73
2023/02/23 11:31:54;;;;;;;27.73;20.70;;;11.80;86.40;;;11.95;71.88;97665.81;5062298;28;20566;-71
2023/02/23 11:34:32;;;;;;;24.83;20.83;;;11.80;86.10;;;11.99;72.71;97660.78;5043415;28;20539;-72
2023/02/23 11:37:04;;;;;;;24.20;19.37;;;11.80;87.00;;;11.72;74.43;97655.78;5027933;28;20442;-71
2023/02/23 11:39:33;;;;;;;28.73;22.37;;;11.60;88.00;;;11.66;75.50;97664.81;5027017;28;20457;-72
2023/02/23 11:42:19;;;;;;;25.07;21.03;;;11.50;90.20;;;11.75;74.00;97648.03;5027829;28;20457;-72
2023/02/23 11:44:52;;;;;;;26.30;21.80;;;11.60;88.90;;;11.82;74.30;97650.63;5027851;28;20485;-74
2023/02/23 11:47:22;;;;;;;25.87;19.73;;;11.60;89.50;;;11.58;75.31;97650.56;5027410;28;21118;-74
2023/02/23 11:49:51;;;;;;;28.43;21.47;;;11.50;90.00;;;11.36;75.45;97635.91;5045286;28;20533;-75
2023/02/23 11:52:23;;;;;;;25.83;21.00;;;11.50;88.90;;;11.45;75.58;97643.47;5029808;28;20451;-72